Terminal Aerodrome Forecast
Issued by NWS

Home | Current Version | Previous Version | Text Only | Print | Product List | Glossary On
Versions: 1 2 3 4 5 6 7 8 9 10 11 12 13
000
FTUS46 KSGX 041120
TAFTRM
TAF
KTRM 041120Z 0412/0512 33008KT P6SM SCT200
     FM041500 VRB05KT P6SM SCT200
     FM041900 14009KT P6SM FEW200
     FM050400 32013KT P6SM SKC=

USA.gov is the U.S. government's official web portal to all federal, state and local government web resources and services.